createdAt,value
2023-05-03T00:00:42.824Z,5.38
2023-05-03T00:01:42.832Z,5.45
2023-05-03T00:02:42.885Z,5.60
2023-05-03T00:03:42.780Z,5.71
2023-05-03T00:04:42.812Z,5.72
2023-05-03T00:05:42.904Z,5.72
2023-05-03T00:06:42.840Z,5.71
2023-05-03T00:07:42.738Z,5.67
2023-05-03T00:08:42.770Z,5.61
2023-05-03T00:09:42.717Z,5.47
2023-05-03T00:10:42.721Z,5.39
2023-05-03T00:11:42.724Z,5.35
2023-05-03T00:12:42.693Z,5.21
2023-05-03T00:13:42.680Z,5.17
2023-05-03T00:14:42.675Z,5.14
2023-05-03T00:15:42.653Z,5.09
2023-05-03T00:16:42.705Z,5.06
2023-05-03T00:17:42.679Z,5.05
2023-05-03T00:18:42.635Z,5.03
2023-05-03T00:19:42.623Z,5.09
2023-05-03T00:20:42.614Z,5.12
2023-05-03T00:21:42.598Z,5.17
2023-05-03T00:22:42.601Z,5.11
2023-05-03T00:23:42.577Z,5.05
2023-05-03T00:24:42.596Z,5.05
2023-05-03T00:25:42.559Z,5.03
2023-05-03T00:26:42.574Z,5.03
2023-05-03T00:27:42.546Z,5.06
2023-05-03T00:28:42.549Z,5.11
2023-05-03T00:29:42.512Z,5.06
2023-05-03T00:30:42.533Z,5.16
2023-05-03T00:31:42.574Z,5.20
2023-05-03T00:32:42.536Z,5.24
2023-05-03T00:33:42.471Z,5.24
2023-05-03T00:34:42.475Z,5.17
2023-05-03T00:35:42.453Z,5.23
2023-05-03T00:36:42.448Z,5.23
2023-05-03T00:37:42.436Z,5.23
2023-05-03T00:38:42.456Z,5.24
2023-05-03T00:39:42.411Z,5.30
2023-05-03T00:40:42.435Z,5.32
2023-05-03T00:41:42.396Z,5.34
2023-05-03T00:42:42.411Z,5.27
2023-05-03T00:43:42.380Z,5.27
2023-05-03T00:44:42.367Z,5.16
2023-05-03T00:45:42.353Z,5.05
2023-05-03T00:46:42.373Z,4.99
2023-05-03T00:47:42.468Z,4.93
2023-05-03T00:48:42.332Z,4.84
2023-05-03T00:49:42.318Z,4.80
2023-05-03T00:50:42.302Z,4.70
2023-05-03T00:51:42.307Z,4.58
2023-05-03T00:52:42.284Z,4.58
2023-05-03T00:53:42.267Z,4.54
2023-05-03T00:54:42.277Z,4.47
2023-05-03T00:55:42.245Z,4.42
2023-05-03T00:56:51.210Z,4.40
2023-05-03T00:57:43.272Z,4.40
2023-05-03T00:58:42.222Z,4.40
2023-05-03T00:59:42.201Z,4.36
2023-05-03T01:00:42.201Z,4.33
2023-05-03T01:01:42.231Z,4.32
2023-05-03T01:02:42.240Z,4.26
2023-05-03T01:03:42.339Z,4.24
2023-05-03T01:04:43.205Z,4.20
2023-05-03T01:05:42.163Z,4.23
2023-05-03T01:06:42.220Z,4.26
2023-05-03T01:07:42.132Z,4.29
2023-05-03T01:08:42.135Z,4.29
2023-05-03T01:09:42.108Z,4.11
2023-05-03T01:10:42.106Z,4.07
2023-05-03T01:11:42.103Z,4.05
2023-05-03T01:12:42.149Z,3.97
2023-05-03T01:13:42.080Z,3.85
2023-05-03T01:14:42.067Z,3.78
2023-05-03T01:15:42.170Z,3.74
2023-05-03T01:16:42.184Z,3.64
2023-05-03T01:17:42.104Z,3.51
2023-05-03T01:18:42.026Z,3.47
2023-05-03T01:19:42.014Z,3.49
2023-05-03T01:20:42.001Z,3.50
2023-05-03T01:21:41.996Z,3.47
2023-05-03T01:22:41.981Z,3.49
2023-05-03T01:23:41.966Z,3.56
2023-05-03T01:24:41.961Z,3.75
2023-05-03T01:25:41.946Z,3.79
2023-05-03T01:26:41.936Z,3.85
2023-05-03T01:27:41.976Z,3.93
2023-05-03T01:28:41.943Z,4.01
2023-05-03T01:29:41.895Z,4.04
2023-05-03T01:30:41.914Z,3.97
2023-05-03T01:31:41.915Z,3.93
2023-05-03T01:32:41.918Z,3.92
2023-05-03T01:33:41.864Z,3.87
2023-05-03T01:34:41.855Z,3.86
2023-05-03T01:35:41.830Z,3.75
2023-05-03T01:36:41.838Z,3.65
2023-05-03T01:37:41.825Z,3.54
2023-05-03T01:38:41.812Z,3.41
2023-05-03T01:39:41.800Z,3.33
2023-05-03T01:40:41.796Z,3.36
2023-05-03T01:41:41.799Z,3.33
2023-05-03T01:42:41.775Z,3.31
2023-05-03T01:43:41.760Z,3.24
2023-05-03T01:44:41.871Z,3.21
2023-05-03T01:45:41.807Z,3.21
2023-05-03T01:46:41.735Z,3.17
2023-05-03T01:47:41.758Z,3.26
2023-05-03T01:48:41.711Z,3.38
2023-05-03T01:49:41.695Z,3.42
2023-05-03T01:50:41.677Z,3.39
2023-05-03T01:51:41.672Z,3.33
2023-05-03T01:52:41.661Z,3.35
2023-05-03T01:53:41.642Z,3.46
2023-05-03T01:54:41.647Z,3.51
2023-05-03T01:55:41.617Z,3.44
2023-05-03T01:56:41.622Z,3.49
2023-05-03T01:57:41.614Z,3.53
2023-05-03T01:58:41.617Z,3.50
2023-05-03T01:59:41.581Z,3.41
2023-05-03T02:00:41.660Z,3.32
2023-05-03T02:01:41.606Z,3.31
2023-05-03T02:02:41.606Z,3.36
2023-05-03T02:03:41.556Z,3.31
2023-05-03T02:04:41.660Z,3.23
2023-05-03T02:05:41.530Z,3.13
2023-05-03T02:06:41.558Z,3.03
2023-05-03T02:07:41.506Z,2.96
2023-05-03T02:08:41.491Z,2.89
2023-05-03T02:09:41.484Z,2.87
2023-05-03T02:10:41.476Z,2.84
2023-05-03T02:11:41.452Z,3.02
2023-05-03T02:12:41.454Z,3.08
2023-05-03T02:13:41.443Z,3.11
2023-05-03T02:14:41.437Z,3.24
2023-05-03T02:15:41.411Z,3.36
2023-05-03T02:16:41.486Z,3.32
2023-05-03T02:17:41.420Z,3.36
2023-05-03T02:18:41.400Z,3.32
2023-05-03T02:19:41.397Z,3.26
2023-05-03T02:20:41.374Z,3.18
2023-05-03T02:21:41.364Z,3.18
2023-05-03T02:22:41.349Z,3.20
2023-05-03T02:23:41.338Z,3.23
2023-05-03T02:24:41.338Z,3.23
2023-05-03T02:25:41.319Z,3.20
2023-05-03T02:26:41.309Z,3.20
2023-05-03T02:27:41.333Z,3.17
2023-05-03T02:28:41.297Z,3.18
2023-05-03T02:29:41.275Z,3.20
2023-05-03T02:30:41.280Z,3.28
2023-05-03T02:31:41.262Z,3.39
2023-05-03T02:32:41.317Z,3.35
2023-05-03T02:33:41.273Z,3.33
2023-05-03T02:34:41.232Z,3.39
2023-05-03T02:35:41.230Z,3.44
2023-05-03T02:36:41.211Z,3.50
2023-05-03T02:37:41.209Z,3.57
2023-05-03T02:38:41.186Z,3.61
2023-05-03T02:39:41.174Z,3.69
2023-05-03T02:40:41.162Z,3.89
2023-05-03T02:41:41.163Z,3.86
2023-05-03T02:42:41.152Z,3.78
2023-05-03T02:43:41.122Z,3.69
2023-05-03T02:44:41.148Z,3.67
2023-05-03T02:45:41.106Z,3.59
2023-05-03T02:46:41.169Z,3.56
2023-05-03T02:47:41.184Z,3.56
2023-05-03T02:48:41.152Z,3.51
2023-05-03T02:49:41.069Z,3.41
2023-05-03T02:50:41.061Z,3.35
2023-05-03T02:51:41.049Z,3.32
2023-05-03T02:52:41.039Z,3.32
2023-05-03T02:53:41.036Z,3.42
2023-05-03T02:54:41.027Z,3.53
2023-05-03T02:55:41.003Z,3.60
2023-05-03T02:56:40.999Z,3.64
2023-05-03T02:57:42.371Z,3.61
2023-05-03T02:58:40.985Z,3.65
2023-05-03T02:59:40.974Z,3.75
2023-05-03T03:00:40.965Z,3.99
2023-05-03T03:01:41.009Z,3.96
2023-05-03T03:02:41.070Z,3.93
2023-05-03T03:03:41.011Z,3.92
2023-05-03T03:04:40.950Z,3.90
2023-05-03T03:05:40.898Z,3.87
2023-05-03T03:06:40.960Z,3.82
2023-05-03T03:07:40.879Z,3.71
2023-05-03T03:08:40.888Z,3.65
2023-05-03T03:09:40.855Z,3.61
2023-05-03T03:10:40.856Z,3.61
2023-05-03T03:11:40.849Z,3.65
2023-05-03T03:12:40.850Z,3.68
2023-05-03T03:13:40.833Z,3.69
2023-05-03T03:14:40.809Z,3.67
2023-05-03T03:15:40.844Z,3.71
2023-05-03T03:16:40.842Z,3.69
2023-05-03T03:17:40.858Z,3.67
2023-05-03T03:18:40.775Z,3.64
2023-05-03T03:19:40.767Z,3.50
2023-05-03T03:20:40.774Z,3.42
2023-05-03T03:21:40.745Z,3.36
2023-05-03T03:22:40.738Z,3.26
2023-05-03T03:23:40.722Z,3.18
2023-05-03T03:24:40.728Z,3.17
2023-05-03T03:25:40.698Z,3.08
2023-05-03T03:26:40.687Z,2.99
2023-05-03T03:27:40.678Z,3.10
2023-05-03T03:28:40.802Z,3.10
2023-05-03T03:29:40.653Z,3.06
2023-05-03T03:30:40.662Z,3.06
2023-05-03T03:31:40.715Z,3.13
2023-05-03T03:32:40.717Z,3.14
2023-05-03T03:33:40.588Z,3.08
2023-05-03T03:34:40.614Z,3.06
2023-05-03T03:35:40.591Z,3.00
2023-05-03T03:36:40.586Z,2.96
2023-05-03T03:37:40.552Z,3.00
2023-05-03T03:38:40.582Z,3.02
2023-05-03T03:39:40.568Z,2.99
2023-05-03T03:40:40.511Z,2.96
2023-05-03T03:41:40.487Z,3.00
2023-05-03T03:42:40.488Z,2.96
2023-05-03T03:43:40.469Z,2.92
2023-05-03T03:44:40.459Z,2.92
2023-05-03T03:45:40.449Z,2.92
2023-05-03T03:46:40.505Z,2.87
2023-05-03T03:47:40.546Z,2.74
2023-05-03T03:48:40.439Z,2.65
2023-05-03T03:49:40.395Z,2.53
2023-05-03T03:50:40.403Z,2.44
2023-05-03T03:51:40.391Z,2.34
2023-05-03T03:52:40.399Z,2.29
2023-05-03T03:53:40.366Z,2.29
2023-05-03T03:54:40.374Z,2.37
2023-05-03T03:55:40.337Z,2.35
2023-05-03T03:56:40.341Z,2.24
2023-05-03T03:57:40.321Z,2.23
2023-05-03T03:58:40.316Z,2.19
2023-05-03T03:59:40.298Z,2.20
2023-05-03T04:00:40.303Z,2.24
2023-05-03T04:01:40.325Z,2.40
2023-05-03T04:02:40.431Z,2.55
2023-05-03T04:03:40.386Z,2.55
2023-05-03T04:04:40.243Z,2.62
2023-05-03T04:05:40.244Z,2.63
2023-05-03T04:06:40.349Z,2.62
2023-05-03T04:07:40.215Z,2.62
2023-05-03T04:08:40.235Z,2.55
2023-05-03T04:09:40.199Z,2.51
2023-05-03T04:10:40.180Z,2.41
2023-05-03T04:11:40.190Z,2.34
2023-05-03T04:12:40.160Z,2.26
2023-05-03T04:13:40.172Z,2.16
2023-05-03T04:14:40.138Z,2.17
2023-05-03T04:15:40.148Z,2.17
2023-05-03T04:16:40.137Z,2.19
2023-05-03T04:17:40.160Z,2.20
2023-05-03T04:18:40.108Z,2.29
2023-05-03T04:19:40.099Z,2.33
2023-05-03T04:20:40.111Z,2.30
2023-05-03T04:21:40.072Z,2.29
2023-05-03T04:22:40.071Z,2.42
2023-05-03T04:23:40.073Z,2.56
2023-05-03T04:24:40.072Z,2.66
2023-05-03T04:25:40.046Z,2.79
2023-05-03T04:26:40.024Z,2.81
2023-05-03T04:27:40.019Z,2.78
2023-05-03T04:28:40.001Z,2.75
2023-05-03T04:29:39.992Z,2.78
2023-05-03T04:30:40.123Z,2.79
2023-05-03T04:31:39.972Z,2.84
2023-05-03T04:32:40.011Z,2.87
2023-05-03T04:33:39.959Z,2.84
2023-05-03T04:34:39.928Z,2.81
2023-05-03T04:35:39.937Z,2.79
2023-05-03T04:36:39.925Z,2.89
2023-05-03T04:37:39.917Z,2.89
2023-05-03T04:38:39.896Z,2.92
2023-05-03T04:39:39.908Z,2.97
2023-05-03T04:40:40.003Z,3.08
2023-05-03T04:41:39.891Z,3.18
2023-05-03T04:42:39.869Z,3.18
2023-05-03T04:43:39.864Z,3.18
2023-05-03T04:44:39.855Z,3.33
2023-05-03T04:45:39.857Z,3.36
2023-05-03T04:46:39.961Z,3.29
2023-05-03T04:47:39.829Z,3.26
2023-05-03T04:48:39.791Z,3.24
2023-05-03T04:49:39.786Z,3.21
2023-05-03T04:50:39.806Z,3.26
2023-05-03T04:51:39.775Z,3.31
2023-05-03T04:52:39.776Z,3.36
2023-05-03T04:53:39.739Z,3.38
2023-05-03T04:54:39.739Z,3.47
2023-05-03T04:55:39.735Z,3.56
2023-05-03T04:56:39.730Z,3.68
2023-05-03T04:57:39.726Z,3.85
2023-05-03T04:58:39.686Z,3.90
2023-05-03T04:59:39.799Z,3.95
2023-05-03T05:00:39.667Z,3.96
2023-05-03T05:01:39.706Z,4.07
2023-05-03T05:02:39.860Z,4.14
2023-05-03T05:03:39.749Z,4.20
2023-05-03T05:04:39.633Z,4.29
2023-05-03T05:05:39.638Z,4.44
2023-05-03T05:06:39.715Z,4.55
2023-05-03T05:07:39.594Z,4.54
2023-05-03T05:08:39.596Z,4.72
2023-05-03T05:09:39.578Z,4.81
2023-05-03T05:10:39.577Z,4.87
2023-05-03T05:11:39.562Z,5.01
2023-05-03T05:12:39.578Z,5.05
2023-05-03T05:13:39.549Z,5.06
2023-05-03T05:14:39.528Z,5.17
2023-05-03T05:15:39.514Z,5.20
2023-05-03T05:16:39.576Z,5.26
2023-05-03T05:17:39.585Z,5.32
2023-05-03T05:18:39.484Z,5.38
2023-05-03T05:19:39.491Z,5.39
2023-05-03T05:20:39.474Z,5.44
2023-05-03T05:21:39.455Z,5.47
2023-05-03T05:22:39.439Z,5.57
2023-05-03T05:23:39.434Z,5.63
2023-05-03T05:24:39.402Z,5.68
2023-05-03T05:25:39.411Z,5.76
2023-05-03T05:26:39.399Z,5.82
2023-05-03T05:27:39.406Z,5.96
2023-05-03T05:28:39.504Z,6.11
2023-05-03T05:29:39.369Z,6.51
2023-05-03T05:30:39.354Z,6.91
2023-05-03T05:31:39.405Z,7.10
2023-05-03T05:32:39.386Z,7.12
2023-05-03T05:33:39.317Z,7.12
2023-05-03T05:34:45.356Z,7.21
2023-05-03T05:35:39.297Z,7.55
2023-05-03T05:36:39.280Z,7.76
2023-05-03T05:37:39.280Z,7.99
2023-05-03T05:38:39.261Z,8.17
2023-05-03T05:39:39.260Z,8.48
2023-05-03T05:40:39.248Z,8.94
2023-05-03T05:41:39.244Z,9.10
2023-05-03T05:42:39.222Z,9.20
2023-05-03T05:43:39.217Z,9.25
2023-05-03T05:44:39.221Z,9.41
2023-05-03T05:45:39.205Z,9.73
2023-05-03T05:46:39.229Z,9.79
2023-05-03T05:47:39.217Z,9.91
2023-05-03T05:48:39.164Z,10.33
2023-05-03T05:49:39.159Z,10.95
2023-05-03T05:50:39.136Z,11.44
2023-05-03T05:51:39.142Z,11.80
2023-05-03T05:52:39.137Z,12.12
2023-05-03T05:53:39.114Z,12.28
2023-05-03T05:54:39.099Z,12.55
2023-05-03T05:55:39.092Z,12.65
2023-05-03T05:56:39.078Z,12.77
2023-05-03T05:57:39.073Z,12.97
2023-05-03T05:58:39.064Z,12.83
2023-05-03T05:59:39.054Z,13.15
2023-05-03T06:00:39.135Z,13.14
2023-05-03T06:01:39.081Z,13.15
2023-05-03T06:02:39.104Z,13.29
2023-05-03T06:03:39.022Z,13.40
2023-05-03T06:04:39.063Z,13.62
2023-05-03T06:05:39.138Z,13.81
2023-05-03T06:06:39.084Z,13.95
2023-05-03T06:07:38.978Z,14.10
2023-05-03T06:08:38.948Z,14.12
2023-05-03T06:09:38.940Z,14.37
2023-05-03T06:10:38.934Z,14.12
2023-05-03T06:11:38.923Z,14.32
2023-05-03T06:12:38.901Z,14.54
2023-05-03T06:13:38.930Z,14.65
2023-05-03T06:14:44.022Z,14.29
2023-05-03T06:15:38.875Z,14.36
2023-05-03T06:16:38.961Z,14.27
2023-05-03T06:17:38.955Z,14.47
2023-05-03T06:18:38.838Z,14.62
2023-05-03T06:19:38.845Z,14.94
2023-05-03T06:20:38.836Z,15.10
2023-05-03T06:21:38.860Z,15.10
2023-05-03T06:22:38.802Z,15.02
2023-05-03T06:23:38.793Z,15.06
2023-05-03T06:24:38.804Z,15.45
2023-05-03T06:25:38.767Z,15.67
2023-05-03T06:26:38.752Z,15.67
2023-05-03T06:27:38.773Z,15.76
2023-05-03T06:28:38.742Z,15.83
2023-05-03T06:29:38.730Z,16.11
2023-05-03T06:30:38.787Z,16.40
2023-05-03T06:31:38.818Z,16.24
2023-05-03T06:32:38.816Z,16.23
2023-05-03T06:33:38.690Z,16.49
2023-05-03T06:34:38.673Z,16.11
2023-05-03T06:35:38.696Z,15.74
2023-05-03T06:36:38.652Z,15.82
2023-05-03T06:37:38.655Z,15.45
2023-05-03T06:38:38.617Z,15.34
2023-05-03T06:39:38.629Z,15.37
2023-05-03T06:40:38.744Z,15.34
2023-05-03T06:41:38.618Z,15.75
2023-05-03T06:42:38.613Z,16.17
2023-05-03T06:43:38.594Z,16.47
2023-05-03T06:44:38.606Z,16.33
2023-05-03T06:45:38.597Z,15.96
2023-05-03T06:46:38.588Z,15.74
2023-05-03T06:47:38.577Z,16.00
2023-05-03T06:48:38.615Z,16.51
2023-05-03T06:49:38.520Z,16.74
2023-05-03T06:50:38.593Z,17.15
2023-05-03T06:51:38.492Z,17.52
2023-05-03T06:52:38.469Z,17.63
2023-05-03T06:53:38.465Z,17.38
2023-05-03T06:54:38.466Z,17.41
2023-05-03T06:55:38.445Z,17.77
2023-05-03T06:56:38.434Z,17.73
2023-05-03T06:57:38.443Z,17.59
2023-05-03T06:58:38.408Z,17.69
2023-05-03T06:59:38.402Z,17.99
2023-05-03T07:00:38.383Z,18.14
2023-05-03T07:01:38.407Z,18.50
2023-05-03T07:02:38.500Z,18.55
2023-05-03T07:03:40.945Z,18.70
2023-05-03T07:04:38.384Z,18.36
2023-05-03T07:05:38.357Z,17.33
2023-05-03T07:06:54.756Z,17.40
2023-05-03T07:07:39.461Z,17.18
2023-05-03T07:08:38.346Z,17.31
2023-05-03T07:09:43.348Z,17.63
2023-05-03T07:10:38.277Z,17.94
2023-05-03T07:11:38.273Z,18.02
2023-05-03T07:12:38.264Z,17.67
2023-05-03T07:13:38.256Z,18.01
2023-05-03T07:14:38.238Z,18.13
2023-05-03T07:15:38.237Z,18.01
2023-05-03T07:16:38.255Z,18.25
2023-05-03T07:17:38.326Z,18.45
2023-05-03T07:18:38.203Z,18.45
2023-05-03T07:19:38.188Z,18.32
2023-05-03T07:20:38.297Z,18.72
2023-05-03T07:21:38.187Z,19.17
2023-05-03T07:22:38.161Z,18.94
2023-05-03T07:23:38.141Z,18.80
2023-05-03T07:24:38.147Z,18.84
2023-05-03T07:25:38.131Z,19.21
2023-05-03T07:26:38.100Z,19.45
2023-05-03T07:27:38.126Z,19.54
2023-05-03T07:28:38.082Z,19.18
2023-05-03T07:29:38.077Z,19.03
2023-05-03T07:30:38.070Z,19.45
2023-05-03T07:31:38.068Z,19.94
2023-05-03T07:32:38.152Z,20.05
2023-05-03T07:33:38.202Z,20.31
2023-05-03T07:34:38.035Z,20.35
2023-05-03T07:35:38.015Z,20.31
2023-05-03T07:36:38.103Z,20.50
2023-05-03T07:37:37.989Z,20.66
2023-05-03T07:38:37.978Z,20.72
2023-05-03T07:39:37.973Z,20.96
2023-05-03T07:40:37.966Z,20.88
2023-05-03T07:41:38.050Z,20.97
2023-05-03T07:42:37.935Z,20.91
2023-05-03T07:43:37.930Z,21.25
2023-05-03T07:44:37.914Z,21.43
2023-05-03T07:45:37.930Z,21.61
2023-05-03T07:46:37.886Z,21.77
2023-05-03T07:47:37.957Z,21.54
2023-05-03T07:48:37.864Z,21.46
2023-05-03T07:49:37.870Z,21.61
2023-05-03T07:50:37.843Z,21.71
2023-05-03T07:51:37.845Z,21.64
2023-05-03T07:52:37.865Z,21.65
2023-05-03T07:53:37.822Z,21.54
2023-05-03T07:54:37.793Z,22.06
2023-05-03T07:55:37.806Z,21.83
2023-05-03T07:56:37.797Z,21.89
2023-05-03T07:57:37.781Z,21.95
2023-05-03T07:58:40.381Z,21.95
2023-05-03T07:59:37.759Z,22.01
2023-05-03T08:00:37.731Z,22.36
2023-05-03T08:01:37.787Z,22.64
2023-05-03T08:02:37.932Z,22.44
2023-05-03T08:03:38.022Z,22.24
2023-05-03T08:04:38.017Z,22.36
2023-05-03T08:05:37.781Z,22.57
2023-05-03T08:06:37.728Z,22.62
2023-05-03T08:07:37.661Z,22.41
2023-05-03T08:08:37.696Z,22.41
2023-05-03T08:09:37.649Z,22.26
2023-05-03T08:10:37.635Z,22.02
2023-05-03T08:11:37.644Z,22.32
2023-05-03T08:12:37.702Z,22.50
2023-05-03T08:13:37.613Z,22.45
2023-05-03T08:14:37.588Z,22.21
2023-05-03T08:15:37.596Z,22.24
2023-05-03T08:16:37.566Z,22.70
2023-05-03T08:17:37.584Z,22.62
2023-05-03T08:18:37.538Z,21.68
2023-05-03T08:19:37.547Z,21.11
2023-05-03T08:20:37.530Z,21.35
2023-05-03T08:21:37.513Z,22.02
2023-05-03T08:22:37.526Z,22.41
2023-05-03T08:23:37.491Z,22.86
2023-05-03T08:24:37.514Z,23.09
2023-05-03T08:25:37.495Z,23.04
2023-05-03T08:26:37.471Z,23.27
2023-05-03T08:27:37.458Z,22.77
2023-05-03T08:28:37.443Z,22.16
2023-05-03T08:29:37.426Z,21.58
2023-05-03T08:30:37.438Z,21.79
2023-05-03T08:31:37.496Z,21.87
2023-05-03T08:32:37.475Z,21.99
2023-05-03T08:33:37.475Z,22.30
2023-05-03T08:34:37.383Z,22.67
2023-05-03T08:35:37.367Z,22.97
2023-05-03T08:36:37.366Z,23.45
2023-05-03T08:37:37.340Z,23.60
2023-05-03T08:38:37.338Z,23.60
2023-05-03T08:39:37.322Z,23.77
2023-05-03T08:40:37.457Z,23.49
2023-05-03T08:41:37.307Z,23.31
2023-05-03T08:42:37.290Z,23.39
2023-05-03T08:43:37.278Z,23.93
2023-05-03T08:44:37.266Z,24.37
2023-05-03T08:45:37.257Z,23.62
2023-05-03T08:46:37.374Z,22.85
2023-05-03T08:47:37.236Z,23.16
2023-05-03T08:48:37.235Z,23.96
2023-05-03T08:49:37.208Z,24.46
2023-05-03T08:50:37.209Z,23.89
2023-05-03T08:51:37.191Z,24.28
2023-05-03T08:52:37.202Z,24.76
2023-05-03T08:53:37.177Z,25.34
2023-05-03T08:54:37.161Z,25.34
2023-05-03T08:55:37.139Z,25.76
2023-05-03T08:56:37.188Z,26.24
2023-05-03T08:57:37.115Z,26.51
2023-05-03T08:58:37.117Z,26.51
2023-05-03T08:59:37.093Z,26.81
2023-05-03T09:00:37.097Z,26.91
2023-05-03T09:01:37.228Z,26.94
2023-05-03T09:02:37.187Z,26.91
2023-05-03T09:03:37.220Z,27.04
2023-05-03T09:04:37.059Z,27.03
2023-05-03T09:05:37.034Z,26.79
2023-05-03T09:06:37.105Z,26.39
2023-05-03T09:07:37.011Z,26.68
2023-05-03T09:08:37.015Z,27.24
2023-05-03T09:09:37.004Z,27.80
2023-05-03T09:10:37.012Z,28.03
2023-05-03T09:11:36.977Z,27.41
2023-05-03T09:12:37.008Z,26.61
2023-05-03T09:13:36.946Z,25.70
2023-05-03T09:14:36.939Z,25.95
2023-05-03T09:15:37.021Z,26.43
2023-05-03T09:16:37.012Z,26.72
2023-05-03T09:17:36.945Z,26.88
2023-05-03T09:18:36.904Z,27.21
2023-05-03T09:19:36.873Z,27.49
2023-05-03T09:20:37.109Z,27.68
2023-05-03T09:21:36.861Z,27.71
2023-05-03T09:22:36.853Z,26.81
2023-05-03T09:23:36.849Z,26.32
2023-05-03T09:24:36.832Z,26.88
2023-05-03T09:25:36.823Z,27.19
2023-05-03T09:26:37.722Z,27.69
2023-05-03T09:27:36.799Z,27.14
2023-05-03T09:28:36.862Z,26.75
2023-05-03T09:29:36.771Z,25.98
2023-05-03T09:30:36.786Z,26.20
2023-05-03T09:31:36.782Z,26.09
2023-05-03T09:32:36.835Z,26.16
2023-05-03T09:33:36.735Z,26.87
2023-05-03T09:34:36.733Z,27.54
2023-05-03T09:35:36.714Z,28.06
2023-05-03T09:36:36.743Z,28.59
2023-05-03T09:37:36.772Z,28.93
2023-05-03T09:38:36.722Z,28.90
2023-05-03T09:39:36.675Z,28.88
2023-05-03T09:40:36.668Z,29.22
2023-05-03T09:41:36.646Z,29.35
2023-05-03T09:42:36.645Z,29.64
2023-05-03T09:43:36.628Z,29.70
2023-05-03T09:44:36.717Z,29.79
2023-05-03T09:45:36.643Z,29.82
2023-05-03T09:46:36.620Z,29.98
2023-05-03T09:47:36.586Z,29.85
2023-05-03T09:48:36.585Z,29.36
2023-05-03T09:49:36.561Z,29.40
2023-05-03T09:50:36.623Z,29.50
2023-05-03T09:51:36.538Z,29.97
2023-05-03T09:52:36.540Z,28.40
2023-05-03T09:53:36.529Z,28.73
2023-05-03T09:54:36.523Z,28.96
2023-05-03T09:55:36.515Z,28.43
2023-05-03T09:56:36.497Z,28.68
2023-05-03T09:57:36.477Z,28.68
2023-05-03T09:58:36.478Z,27.47
2023-05-03T09:59:36.457Z,27.66
2023-05-03T10:00:36.543Z,28.30
2023-05-03T10:01:36.457Z,28.83
2023-05-03T10:02:36.456Z,29.07
2023-05-03T10:03:36.458Z,29.32
2023-05-03T10:04:36.423Z,28.78
2023-05-03T10:05:36.403Z,27.93
2023-05-03T10:06:36.496Z,27.27
2023-05-03T10:07:36.374Z,27.10
2023-05-03T10:08:36.382Z,27.58
2023-05-03T10:09:36.347Z,28.34
2023-05-03T10:10:36.372Z,28.77
2023-05-03T10:11:36.330Z,29.07
2023-05-03T10:12:36.338Z,28.85
2023-05-03T10:13:36.315Z,28.55
2023-05-03T10:14:36.317Z,27.98
2023-05-03T10:15:36.295Z,28.05
2023-05-03T10:16:36.309Z,28.11
2023-05-03T10:17:47.793Z,26.81
2023-05-03T10:18:37.331Z,25.35
2023-05-03T10:19:36.251Z,25.04
2023-05-03T10:20:36.244Z,25.60
2023-05-03T10:21:36.229Z,25.77
2023-05-03T10:22:36.222Z,26.06
2023-05-03T10:23:36.211Z,26.25
2023-05-03T10:24:36.204Z,27.13
2023-05-03T10:25:36.212Z,27.64
2023-05-03T10:26:36.205Z,28.01
2023-05-03T10:27:36.161Z,28.29
2023-05-03T10:28:36.165Z,28.30
2023-05-03T10:29:36.221Z,28.51
2023-05-03T10:30:36.137Z,28.16
2023-05-03T10:31:36.157Z,28.68
2023-05-03T10:32:36.266Z,28.66
2023-05-03T10:33:36.103Z,28.14
2023-05-03T10:34:36.093Z,27.96
2023-05-03T10:35:36.082Z,28.18
2023-05-03T10:36:48.797Z,27.54
2023-05-03T10:37:37.096Z,26.22
2023-05-03T10:38:36.054Z,26.43
2023-05-03T10:39:36.034Z,27.40
2023-05-03T10:40:36.024Z,28.30
2023-05-03T10:41:36.019Z,28.86
2023-05-03T10:42:36.016Z,29.04
2023-05-03T10:43:35.992Z,29.13
2023-05-03T10:44:35.995Z,29.05
2023-05-03T10:45:35.968Z,29.01
2023-05-03T10:46:36.275Z,29.32
2023-05-03T10:47:35.987Z,29.74
2023-05-03T10:48:36.023Z,29.52
2023-05-03T10:49:35.923Z,29.50
2023-05-03T10:50:35.920Z,28.30
2023-05-03T10:51:35.926Z,27.91
2023-05-03T10:52:35.971Z,27.31
2023-05-03T10:53:35.906Z,27.18
2023-05-03T10:54:35.886Z,27.58
2023-05-03T10:55:35.863Z,27.12
2023-05-03T10:56:35.859Z,26.56
2023-05-03T10:57:36.341Z,26.80
2023-05-03T10:58:35.850Z,27.22
2023-05-03T10:59:35.818Z,27.03
2023-05-03T11:00:35.833Z,26.39
2023-05-03T11:01:35.828Z,25.55
2023-05-03T11:02:35.826Z,25.23
2023-05-03T11:03:35.789Z,25.31
2023-05-03T11:04:35.856Z,24.83
2023-05-03T11:05:35.765Z,24.97
2023-05-03T11:06:36.049Z,25.27
2023-05-03T11:07:35.733Z,25.72
2023-05-03T11:08:35.733Z,25.79
2023-05-03T11:09:35.715Z,25.41
2023-05-03T11:10:35.706Z,25.34
2023-05-03T11:11:35.701Z,25.08
2023-05-03T11:12:35.685Z,24.90
2023-05-03T11:13:35.719Z,25.67
2023-05-03T11:14:35.670Z,26.43
2023-05-03T11:15:35.653Z,26.99
2023-05-03T11:16:35.706Z,27.41
2023-05-03T11:17:35.643Z,27.37
2023-05-03T11:18:35.626Z,27.46
2023-05-03T11:19:35.624Z,27.74
2023-05-03T11:20:35.635Z,26.81
2023-05-03T11:21:35.589Z,26.49
2023-05-03T11:22:35.594Z,26.19
2023-05-03T11:23:35.564Z,26.31
2023-05-03T11:24:35.563Z,26.62
2023-05-03T11:25:35.546Z,26.02
2023-05-03T11:26:35.548Z,26.68
2023-05-03T11:27:35.530Z,27.54
2023-05-03T11:28:35.527Z,28.41
2023-05-03T11:29:35.498Z,28.88
2023-05-03T11:30:35.501Z,28.39
2023-05-03T11:31:35.601Z,27.76
2023-05-03T11:32:35.519Z,28.51
2023-05-03T11:33:35.462Z,29.13
2023-05-03T11:34:35.459Z,28.81
2023-05-03T11:35:35.444Z,28.61
2023-05-03T11:36:35.466Z,28.56
2023-05-03T11:37:35.417Z,28.85
2023-05-03T11:38:35.520Z,29.07
2023-05-03T11:39:35.403Z,27.65
2023-05-03T11:40:35.398Z,28.40
2023-05-03T11:41:35.375Z,28.62
2023-05-03T11:42:35.396Z,28.86
2023-05-03T11:43:35.382Z,28.92
2023-05-03T11:44:35.419Z,29.15
2023-05-03T11:45:35.391Z,29.57
2023-05-03T11:46:35.450Z,29.67
2023-05-03T11:47:35.335Z,30.00
2023-05-03T11:48:35.439Z,30.45
2023-05-03T11:49:35.289Z,29.86
2023-05-03T11:50:35.290Z,28.08
2023-05-03T11:51:35.268Z,27.78
2023-05-03T11:52:35.296Z,28.46
2023-05-03T11:53:35.254Z,28.77
2023-05-03T11:54:35.247Z,28.73
2023-05-03T11:55:35.233Z,28.71
2023-05-03T11:56:35.234Z,29.03
2023-05-03T11:57:35.258Z,28.89
2023-05-03T11:58:35.218Z,29.38
2023-05-03T11:59:35.200Z,29.56
2023-05-03T12:00:35.190Z,29.40
2023-05-03T12:01:35.187Z,29.50
2023-05-03T12:02:35.349Z,29.74
2023-05-03T12:03:35.269Z,29.94
2023-05-03T12:04:35.450Z,29.25
2023-05-03T12:05:35.472Z,28.95
2023-05-03T12:06:36.005Z,28.36
2023-05-03T12:07:35.370Z,27.84
2023-05-03T12:08:36.987Z,27.12
2023-05-03T12:09:35.838Z,26.44
2023-05-03T12:10:35.812Z,26.87
2023-05-03T12:11:36.497Z,26.75
2023-05-03T12:12:37.197Z,26.35
2023-05-03T12:13:37.494Z,26.61
2023-05-03T12:14:36.013Z,26.54
2023-05-03T12:15:36.897Z,26.69
2023-05-03T12:16:35.143Z,27.03
2023-05-03T12:17:36.812Z,27.37
2023-05-03T12:18:35.349Z,27.76
2023-05-03T12:19:38.262Z,28.24
2023-05-03T12:22:35.175Z,27.14
2023-05-03T12:23:35.085Z,27.31
2023-05-03T12:24:35.527Z,27.68
2023-05-03T12:25:37.883Z,28.08
2023-05-03T12:26:36.392Z,28.01
2023-05-03T12:27:36.777Z,28.10
2023-05-03T12:28:34.968Z,28.55
2023-05-03T12:29:35.706Z,28.76
2023-05-03T12:30:34.971Z,28.93
2023-05-03T12:31:35.121Z,29.07
2023-05-03T12:32:34.901Z,29.25
2023-05-03T12:33:38.210Z,28.96
2023-05-03T12:34:36.516Z,29.25
2023-05-03T12:35:34.971Z,29.66
2023-05-03T12:36:37.435Z,29.45
2023-05-03T12:37:38.313Z,29.03
2023-05-03T12:38:37.232Z,28.10
2023-05-03T12:39:39.255Z,28.34
2023-05-03T12:40:35.414Z,28.64
2023-05-03T12:42:05.515Z,28.61
2023-05-03T12:42:35.889Z,28.36
2023-05-03T12:43:34.811Z,28.64
2023-05-03T12:44:35.447Z,28.58
2023-05-03T12:45:35.141Z,28.20
2023-05-03T12:46:35.506Z,27.39
2023-05-03T12:47:36.413Z,28.01
2023-05-03T12:48:34.915Z,28.76
2023-05-03T12:49:38.261Z,29.04
2023-05-03T12:50:38.399Z,28.83
2023-05-03T12:51:34.841Z,28.68
2023-05-03T12:52:37.908Z,28.73
2023-05-03T12:53:38.531Z,29.15
2023-05-03T12:54:34.732Z,29.20
2023-05-03T12:55:35.671Z,29.33
2023-05-03T12:56:37.793Z,29.38
2023-05-03T12:57:37.396Z,29.60
2023-05-03T12:58:57.928Z,29.30
2023-05-03T12:59:41.142Z,28.89
2023-05-03T13:00:36.838Z,27.98
2023-05-03T13:03:41.243Z,28.31
2023-05-03T13:04:56.537Z,29.05
2023-05-03T13:05:36.485Z,28.86
2023-05-03T13:06:41.678Z,29.26
2023-05-03T13:08:35.355Z,28.96